Time;durP1;ratioP1;P1;durP2;ratioP2;P2;SDS_P1;SDS_P2;PMS_P1;PMS_P2;Temp;Humidity;BMP_temperature;BMP_pressure;BME280_temperature;BME280_humidity;BME280_pressure;Samples;Min_cycle;Max_cycle;Signal;HPM_P1;HPM_P2
2022/10/18 00:01:33;;;;;;;15.18;8.50;;;307.60;2304.00;;;;;;5020450;28;20373;-82
2022/10/18 00:03:59;;;;;;;16.52;9.10;;;307.50;2304.00;;;;;;4999456;28;20026;-75
2022/10/18 00:06:24;;;;;;;18.90;9.18;;;307.60;2304.00;;;;;;5002803;28;20029;-76
2022/10/18 00:08:50;;;;;;;16.63;9.98;;;307.70;2304.00;;;;;;4999799;28;20037;-75
2022/10/18 00:11:16;;;;;;;17.45;9.63;;;307.80;2304.00;;;;;;5002571;28;20036;-75
2022/10/18 00:13:42;;;;;;;16.63;9.40;;;307.80;2304.00;;;;;;5019659;28;20492;-75
2022/10/18 00:16:14;;;;;;;20.30;9.27;;;307.80;2304.00;;;;;;5014521;28;20398;-75
2022/10/18 00:18:40;;;;;;;14.30;10.07;;;307.80;2304.00;;;;;;5001988;28;20049;-79
2022/10/18 00:21:10;;;;;;;15.27;9.75;;;307.30;2304.00;;;;;;4998839;28;20025;-75
2022/10/18 00:23:36;;;;;;;15.48;9.48;;;307.40;2304.00;;;;;;5019822;28;20053;-76
2022/10/18 00:26:10;;;;;;;16.85;10.13;;;307.30;2304.00;;;;;;5000794;28;20426;-77
2022/10/18 00:28:37;;;;;;;16.38;9.73;;;307.20;2304.00;;;;;;5017108;28;20030;-79
2022/10/18 00:31:19;;;;;;;15.05;10.80;;;307.20;2304.00;;;;;;4999002;28;20036;-76
2022/10/18 00:33:48;;;;;;;15.68;9.70;;;282.50;2278.40;;;;;;5004989;28;20483;-76
2022/10/18 00:36:14;;;;;;;16.20;9.05;;;307.20;2304.00;;;;;;5016552;28;20033;-79
2022/10/18 00:38:40;;;;;;;14.55;8.85;;;307.30;2304.00;;;;;;5003465;28;20037;-75
2022/10/18 00:41:08;;;;;;;16.05;9.52;;;307.30;2304.00;;;;;;5019377;28;20026;-78
2022/10/18 00:43:55;;;;;;;19.17;9.82;;;307.40;2304.00;;;;;;5001148;28;20117;-79
2022/10/18 00:46:21;;;;;;;18.13;10.32;;;307.40;2304.00;;;;;;4998554;28;20069;-74
2022/10/18 00:48:47;;;;;;;15.10;9.20;;;307.30;2304.00;;;;;;5013785;28;20042;-77
2022/10/18 00:51:15;;;;;;;17.00;8.70;;;307.30;2304.00;;;;;;4998970;28;20076;-79
2022/10/18 00:53:41;;;;;;;16.23;10.07;;;282.50;2278.40;;;;;;4998939;28;20124;-77
2022/10/18 00:56:07;;;;;;;19.52;9.50;;;307.20;2304.00;;;;;;5019230;28;20108;-77
2022/10/18 00:58:33;;;;;;;15.15;10.38;;;307.20;2304.00;;;;;;5006978;28;20052;-78
2022/10/18 01:00:59;;;;;;;15.15;9.82;;;282.40;2278.40;;;;;;5001424;28;20039;-77
2022/10/18 01:03:25;;;;;;;16.65;9.50;;;307.20;2304.00;;;;;;5013796;28;20452;-77
2022/10/18 01:05:51;;;;;;;19.65;9.90;;;307.30;2304.00;;;;;;5004586;28;20080;-77
2022/10/18 01:08:39;;;;;;;19.58;10.32;;;282.40;2278.40;;;;;;5018523;28;20061;-77
2022/10/18 01:11:40;;;;;;;22.95;10.95;;;282.50;2278.40;;;;;;5001582;28;20034;-77
2022/10/18 01:14:09;;;;;;;16.83;9.00;;;282.50;2278.40;;;;;;4925646;29;20462;-78
2022/10/18 01:16:42;;;;;;;16.63;9.65;;;282.40;2278.40;;;;;;4930781;29;20035;-79
2022/10/18 01:19:44;;;;;;;16.83;8.82;;;282.30;2278.40;;;;;;4923302;29;20486;-78
2022/10/18 01:22:34;;;;;;;16.13;9.77;;;282.40;2278.40;;;;;;4920867;29;20027;-76
2022/10/18 01:25:12;;;;;;;21.75;9.93;;;282.20;2278.40;;;;;;4932857;29;20035;-78
2022/10/18 01:28:02;;;;;;;16.48;9.70;;;282.20;2278.40;;;;;;4936885;29;20596;-79
2022/10/18 01:31:03;;;;;;;15.60;9.15;;;282.20;2278.40;;;;;;4940143;29;20039;-79
2022/10/18 01:33:33;;;;;;;16.88;9.43;;;282.00;2278.40;;;;;;4933393;29;20512;-77
2022/10/18 01:36:08;;;;;;;13.45;8.68;;;281.90;2278.40;;;;;;4931234;29;20092;-76
2022/10/18 01:38:36;;;;;;;18.73;9.45;;;281.90;2278.40;;;;;;4936804;29;20489;-77
2022/10/18 01:41:03;;;;;;;17.42;9.60;;;281.90;2278.40;;;;;;4922032;29;20028;-76
2022/10/18 01:43:31;;;;;;;14.10;9.13;;;281.90;2278.40;;;;;;4926432;29;20097;-79
2022/10/18 01:45:59;;;;;;;12.77;8.95;;;281.90;2278.40;;;;;;4946465;28;20136;-78
2022/10/18 01:48:25;;;;;;;17.80;9.45;;;281.80;2278.40;;;;;;4917222;29;20135;-78
2022/10/18 01:50:53;;;;;;;18.50;8.73;;;281.70;2278.40;;;;;;4981313;28;20036;-76
2022/10/18 01:53:26;;;;;;;13.52;9.20;;;281.80;2278.40;;;;;;4980880;28;20030;-75
2022/10/18 01:56:06;;;;;;;19.85;8.50;;;281.90;2278.40;;;;;;4978583;28;20049;-77
2022/10/18 01:58:47;;;;;;;12.77;8.73;;;282.00;2278.40;;;;;;4995842;28;20038;-76
2022/10/18 02:01:59;;;;;;;17.85;9.25;;;282.20;2278.40;;;;;;4996950;28;20034;-76
2022/10/18 02:04:39;;;;;;;17.75;9.23;;;282.20;2278.40;;;;;;4914708;29;20036;-77
2022/10/18 02:07:35;;;;;;;17.63;9.32;;;282.20;2278.40;;;;;;4902332;29;20085;-76
2022/10/18 02:10:12;;;;;;;14.57;9.23;;;282.20;2278.40;;;;;;4901954;29;20046;-77
2022/10/18 02:12:42;;;;;;;17.50;9.20;;;282.20;2278.40;;;;;;4906227;29;20044;-79
2022/10/18 02:15:10;;;;;;;14.80;8.65;;;282.20;2278.40;;;;;;4916305;29;20084;-79
2022/10/18 02:17:38;;;;;;;17.60;10.20;;;282.20;2278.40;;;;;;4898170;29;20039;-77
2022/10/18 02:20:05;;;;;;;14.05;8.93;;;282.30;2278.40;;;;;;4904525;29;20036;-79
2022/10/18 02:22:34;;;;;;;14.73;9.48;;;282.50;2278.40;;;;;;4903814;29;20043;-77
2022/10/18 02:25:04;;;;;;;17.40;9.52;;;282.50;2278.40;;;;;;4905742;29;20074;-79
2022/10/18 02:27:30;;;;;;;17.10;9.10;;;307.20;2304.00;;;;;;4921155;28;20036;-78
2022/10/18 02:29:56;;;;;;;16.27;9.48;;;307.20;2304.00;;;;;;4908489;29;20441;-76
2022/10/18 02:32:22;;;;;;;13.88;8.80;;;307.20;2304.00;;;;;;4913558;29;20028;-76
2022/10/18 02:35:02;;;;;;;16.15;8.75;;;307.20;2304.00;;;;;;4904461;29;20255;-79
2022/10/18 02:37:33;;;;;;;18.40;10.35;;;307.20;2304.00;;;;;;4903598;29;20028;-78
2022/10/18 02:40:00;;;;;;;14.52;8.82;;;307.20;2304.00;;;;;;4918158;28;20020;-76
2022/10/18 02:42:35;;;;;;;15.65;8.63;;;307.20;2304.00;;;;;;4975088;28;20034;-76
2022/10/18 02:45:00;;;;;;;16.13;9.82;;;307.20;2304.00;;;;;;4975066;28;20029;-76
2022/10/18 02:47:26;;;;;;;15.43;9.00;;;282.50;2278.40;;;;;;5009607;28;20112;-78
2022/10/18 02:49:52;;;;;;;20.02;9.68;;;282.40;2278.40;;;;;;5014298;28;20032;-79
2022/10/18 02:52:18;;;;;;;16.85;9.38;;;282.40;2278.40;;;;;;5015362;28;20483;-76
2022/10/18 02:54:43;;;;;;;;;;;282.40;2278.40;;;;;;4999642;28;20400;-76
2022/10/18 02:57:09;;;;;;;13.50;9.15;;;282.40;2278.40;;;;;;5032742;28;19909;-76
2022/10/18 02:59:34;;;;;;;;;;;282.20;2278.40;;;;;;4997241;28;20423;-76
2022/10/18 03:02:00;;;;;;;12.60;8.55;;;282.30;2278.40;;;;;;5038105;28;19909;-75
2022/10/18 03:04:26;;;;;;;15.48;9.05;;;282.30;2278.40;;;;;;4996872;28;20542;-76
2022/10/18 03:06:51;;;;;;;21.08;9.60;;;282.20;2278.40;;;;;;5014382;28;20018;-75
2022/10/18 03:09:17;;;;;;;15.80;9.40;;;282.20;2278.40;;;;;;4999551;28;20479;-77
2022/10/18 03:11:43;;;;;;;15.10;9.38;;;282.30;2278.40;;;;;;4993670;28;20030;-79
2022/10/18 03:14:08;;;;;;;19.52;9.40;;;282.20;2278.40;;;;;;4996880;28;20053;-76
2022/10/18 03:16:34;;;;;;;17.65;10.68;;;282.30;2278.40;;;;;;4998446;28;20420;-79
2022/10/18 03:19:00;;;;;;;18.75;9.68;;;282.20;2278.40;;;;;;5022591;28;20030;-76
2022/10/18 03:21:26;;;;;;;19.83;10.25;;;282.40;2278.40;;;;;;4999786;28;20017;-76
2022/10/18 03:23:51;;;;;;;16.55;9.35;;;282.30;2278.40;;;;;;5017093;28;20033;-76
2022/10/18 03:26:17;;;;;;;;;;;282.20;2278.40;;;;;;5016476;28;20085;-76
2022/10/18 03:28:43;;;;;;;18.10;9.85;;;282.20;2278.40;;;;;;4995182;28;19917;-79
2022/10/18 03:31:08;;;;;;;;;;;282.00;2278.40;;;;;;5016954;28;20032;-76
2022/10/18 03:33:34;;;;;;;18.05;9.68;;;281.90;2278.40;;;;;;4996592;28;19909;-78
2022/10/18 03:35:59;;;;;;;;;;;281.80;2278.40;;;;;;4994419;28;20049;-80
2022/10/18 03:38:25;;;;;;;18.27;10.15;;;281.80;2278.40;;;;;;5019420;28;19963;-76
2022/10/18 03:40:51;;;;;;;17.52;9.38;;;281.80;2278.40;;;;;;4996703;28;20033;-79
2022/10/18 03:43:17;;;;;;;17.00;9.73;;;281.90;2278.40;;;;;;4998867;28;20089;-80
2022/10/18 03:45:43;;;;;;;16.73;9.98;;;281.70;2278.40;;;;;;4999032;28;20050;-76
2022/10/18 03:48:08;;;;;;;;;;;281.60;2278.40;;;;;;5007571;28;20390;-76
2022/10/18 03:50:34;;;;;;;15.30;9.13;;;281.70;2278.40;;;;;;5016712;28;19909;-76
2022/10/18 03:53:00;;;;;;;15.65;9.52;;;281.70;2278.40;;;;;;4999606;28;20565;-75
2022/10/18 03:55:25;;;;;;;;;;;281.60;2278.40;;;;;;4996817;28;20418;-76
2022/10/18 03:57:51;;;;;;;14.75;9.52;;;281.60;2278.40;;;;;;5014793;28;19941;-76
2022/10/18 04:00:17;;;;;;;16.63;10.57;;;281.70;2278.40;;;;;;5000121;28;20021;-76
2022/10/18 04:02:42;;;;;;;19.90;10.93;;;281.70;2278.40;;;;;;4996964;28;20383;-76
2022/10/18 04:05:08;;;;;;;15.80;10.45;;;281.70;2278.40;;;;;;5002127;28;20038;-75
2022/10/18 04:07:34;;;;;;;18.10;9.93;;;281.70;2278.40;;;;;;5005363;28;20025;-78
2022/10/18 04:10:00;;;;;;;20.70;10.45;;;281.80;2278.40;;;;;;5012545;28;20038;-79
2022/10/18 04:12:26;;;;;;;;;;;281.90;2278.40;;;;;;5030034;28;20573;-76
2022/10/18 04:14:51;;;;;;;18.42;9.55;;;281.90;2278.40;;;;;;5029272;28;19906;-74
2022/10/18 04:17:17;;;;;;;20.65;10.18;;;281.90;2278.40;;;;;;5023863;28;20091;-75
2022/10/18 04:19:43;;;;;;;20.02;9.75;;;281.80;2278.40;;;;;;5018660;28;20056;-75
2022/10/18 04:22:10;;;;;;;17.38;10.10;;;281.80;2278.40;;;;;;5014305;28;20112;-75
2022/10/18 04:24:36;;;;;;;14.80;10.10;;;281.70;2278.40;;;;;;5030726;28;20021;-75
2022/10/18 04:27:03;;;;;;;16.33;11.10;;;281.70;2278.40;;;;;;5019625;28;20025;-79
2022/10/18 04:29:29;;;;;;;13.07;8.88;;;281.70;2278.40;;;;;;5001317;28;20049;-75
2022/10/18 04:31:55;;;;;;;19.05;9.77;;;281.70;2278.40;;;;;;4999714;28;20022;-75
2022/10/18 04:34:20;;;;;;;26.35;11.95;;;281.80;2278.40;;;;;;5018851;28;20379;-75
2022/10/18 04:36:46;;;;;;;19.67;9.80;;;281.80;2278.40;;;;;;5000955;28;20498;-76
2022/10/18 04:39:12;;;;;;;;;;;281.70;2278.40;;;;;;5022897;28;20071;-74
2022/10/18 04:41:38;;;;;;;15.68;8.93;;;281.80;2278.40;;;;;;5031592;28;20320;-74
2022/10/18 04:44:03;;;;;;;20.58;9.70;;;281.70;2278.40;;;;;;4996367;28;20025;-75
2022/10/18 04:46:29;;;;;;;15.93;10.35;;;281.70;2278.40;;;;;;5013356;28;20069;-75
2022/10/18 04:48:55;;;;;;;19.98;10.07;;;281.60;2278.40;;;;;;5021900;28;20034;-74
2022/10/18 04:51:21;;;;;;;21.40;10.13;;;281.70;2278.40;;;;;;5018905;28;20029;-74
2022/10/18 04:53:47;;;;;;;17.38;9.90;;;281.70;2278.40;;;;;;5004260;28;20076;-79
2022/10/18 04:56:12;;;;;;;16.33;10.27;;;281.70;2278.40;;;;;;5016311;28;20415;-75
2022/10/18 04:58:38;;;;;;;28.88;11.77;;;281.80;2278.40;;;;;;4995876;28;20033;-75
2022/10/18 05:01:05;;;;;;;;;;;281.80;2278.40;;;;;;5019673;28;20494;-74
2022/10/18 05:03:31;;;;;;;16.15;8.38;;;281.80;2278.40;;;;;;5034174;28;19910;-75
2022/10/18 05:05:57;;;;;;;;;;;281.70;2278.40;;;;;;5019477;28;20084;-75
2022/10/18 05:08:22;;;;;;;17.33;10.07;;;281.60;2278.40;;;;;;5027561;28;19913;-75
2022/10/18 05:10:48;;;;;;;;;;;281.60;2278.40;;;;;;4997824;28;20058;-75
2022/10/18 05:13:14;;;;;;;14.82;8.95;;;256.90;2252.80;;;;;;5018576;28;20028;-74
2022/10/18 05:15:40;;;;;;;22.88;10.05;;;256.90;2252.80;;;;;;4998379;28;20046;-74
2022/10/18 05:18:06;;;;;;;15.55;9.73;;;256.90;2252.80;;;;;;5018815;28;20030;-77
2022/10/18 05:20:31;;;;;;;;;;;256.90;2252.80;;;;;;5022039;28;20028;-77
2022/10/18 05:22:57;;;;;;;16.83;9.40;;;256.90;2252.80;;;;;;5001606;28;19955;-77
2022/10/18 05:25:23;;;;;;;18.25;9.38;;;256.90;2252.80;;;;;;5020878;28;20030;-80
2022/10/18 05:27:49;;;;;;;;;;;256.80;2252.80;;;;;;5009225;28;20037;-78
2022/10/18 05:30:14;;;;;;;16.13;9.93;;;256.90;2252.80;;;;;;5037732;28;19917;-77
2022/10/18 05:32:40;;;;;;;;;;;281.60;2278.40;;;;;;5010040;28;20049;-78
2022/10/18 05:35:06;;;;;;;18.17;8.95;;;281.70;2278.40;;;;;;5009105;28;19906;-78
2022/10/18 05:37:32;;;;;;;17.52;9.27;;;281.90;2278.40;;;;;;5003804;28;20018;-78
2022/10/18 05:39:57;;;;;;;18.88;9.20;;;282.10;2278.40;;;;;;5001085;28;20026;-78
2022/10/18 05:42:23;;;;;;;;;;;282.20;2278.40;;;;;;5008133;28;20081;-81
2022/10/18 05:44:49;;;;;;;13.43;9.25;;;282.10;2278.40;;;;;;5016296;28;19913;-79
2022/10/18 05:47:14;;;;;;;15.50;9.18;;;282.20;2278.40;;;;;;5008008;28;20037;-76
2022/10/18 05:49:40;;;;;;;20.33;10.10;;;282.20;2278.40;;;;;;5013746;28;20533;-76
2022/10/18 05:52:06;;;;;;;15.63;8.90;;;282.30;2278.40;;;;;;5009256;28;20113;-79
2022/10/18 05:54:32;;;;;;;14.57;8.90;;;282.40;2278.40;;;;;;5003737;28;20032;-78
2022/10/18 05:56:57;;;;;;;18.23;10.18;;;282.50;2278.40;;;;;;5006640;28;20018;-81
2022/10/18 05:59:23;;;;;;;;;;;307.20;2304.00;;;;;;5007373;28;20120;-78
2022/10/18 06:01:49;;;;;;;15.48;8.63;;;307.20;2304.00;;;;;;5006750;28;19908;-77
2022/10/18 06:04:16;;;;;;;;;;;307.30;2304.00;;;;;;5024306;28;20064;-80
2022/10/18 06:06:42;;;;;;;16.83;8.30;;;307.40;2304.00;;;;;;5033018;28;20354;-77
2022/10/18 06:09:08;;;;;;;18.15;8.63;;;307.40;2304.00;;;;;;5025349;28;20037;-78
2022/10/18 06:11:35;;;;;;;16.60;9.02;;;307.60;2304.00;;;;;;5031009;28;20112;-76
2022/10/18 06:14:01;;;;;;;16.63;9.25;;;307.70;2304.00;;;;;;5035129;28;20471;-79
2022/10/18 06:16:27;;;;;;;21.85;12.00;;;307.80;2304.00;;;;;;5020543;28;20055;-79
2022/10/18 06:18:56;;;;;;;17.88;8.63;;;307.90;2304.00;;;;;;5044186;28;20096;-81
2022/10/18 06:21:23;;;;;;;13.15;7.93;;;308.00;2304.00;;;;;;5020017;28;20017;-78
2022/10/18 06:23:54;;;;;;;25.90;9.35;;;308.10;2304.00;;;;;;5000386;28;20423;-77
2022/10/18 06:26:21;;;;;;;12.85;7.78;;;308.10;2304.00;;;;;;5000013;28;20044;-77
2022/10/18 06:28:47;;;;;;;15.18;9.05;;;332.80;2329.60;;;;;;5000135;28;20038;-77
2022/10/18 06:31:13;;;;;;;20.70;9.13;;;332.90;2329.60;;;;;;5035360;28;20017;-79
2022/10/18 06:33:38;;;;;;;21.55;8.68;;;333.00;2329.60;;;;;;5034493;28;20025;-79
2022/10/18 06:36:05;;;;;;;18.50;8.70;;;333.10;2329.60;;;;;;5033513;28;20091;-79
2022/10/18 06:38:32;;;;;;;17.08;7.93;;;333.20;2329.60;;;;;;5008000;28;20588;-78
2022/10/18 06:40:58;;;;;;;23.10;7.80;;;333.20;2329.60;;;;;;5024224;28;20026;-77
2022/10/18 06:43:25;;;;;;;12.85;8.10;;;333.40;2329.60;;;;;;5009319;28;20033;-81
2022/10/18 06:45:51;;;;;;;19.33;8.13;;;333.50;2329.60;;;;;;5022762;28;20045;-80
2022/10/18 06:48:17;;;;;;;16.30;7.82;;;333.60;2329.60;;;;;;5008601;28;20048;-83
2022/10/18 06:50:57;;;;;;;24.40;12.98;;;333.70;2329.60;;;;;;5052235;28;20033;-76
2022/10/18 06:53:26;;;;;;;20.15;9.10;;;358.50;2329.60;;;;;;5016021;28;20030;-80
2022/10/18 06:55:58;;;;;;;14.52;6.63;;;358.60;2329.60;;;;;;5001284;28;20033;-81
2022/10/18 06:58:24;;;;;;;15.57;7.47;;;358.80;2329.60;;;;;;5027440;28;20017;-82
2022/10/18 07:00:50;;;;;;;16.63;7.30;;;358.80;2329.60;;;;;;5029624;28;20445;-77
2022/10/18 07:03:15;;;;;;;13.80;6.80;;;359.00;2329.60;;;;;;5014585;28;20029;-81
2022/10/18 07:05:41;;;;;;;14.40;7.20;;;359.00;2329.60;;;;;;5031702;28;20060;-78
2022/10/18 07:08:07;;;;;;;12.73;6.70;;;359.20;2329.60;;;;;;5033973;28;20049;-79
2022/10/18 07:10:33;;;;;;;10.80;6.15;;;359.20;2329.60;;;;;;5034424;28;20028;-76
2022/10/18 07:12:58;;;;;;;17.85;7.97;;;359.30;2329.60;;;;;;5051946;28;20452;-77
2022/10/18 07:15:24;;;;;;;15.68;7.05;;;384.00;2329.60;;;;;;5052766;28;20086;-81
2022/10/18 07:17:50;;;;;;;11.38;6.03;;;384.00;2329.60;;;;;;5015748;28;20057;-80
2022/10/18 07:20:16;;;;;;;15.45;6.45;;;384.10;2329.60;;;;;;5025623;28;20482;-81
2022/10/18 07:22:41;;;;;;;13.70;7.00;;;384.20;2329.60;;;;;;5031598;28;20474;-83
2022/10/18 07:25:08;;;;;;;12.38;6.90;;;384.30;2329.60;;;;;;5040641;28;20032;-77
2022/10/18 07:27:38;;;;;;;11.93;6.40;;;384.40;2329.60;;;;;;5051875;28;20021;-80
2022/10/18 07:30:08;;;;;;;12.40;5.70;;;384.50;2329.60;;;;;;5034258;28;20033;-78
2022/10/18 07:32:34;;;;;;;13.10;6.28;;;384.60;2329.60;;;;;;5037294;28;20052;-77
2022/10/18 07:35:01;;;;;;;10.05;6.55;;;384.70;2329.60;;;;;;5051526;28;20508;-78
2022/10/18 07:37:27;;;;;;;14.82;5.88;;;384.80;2304.00;;;;;;5030700;28;20055;-83
2022/10/18 07:39:53;;;;;;;10.68;5.28;;;384.90;2252.80;;;;;;5023324;28;20064;-78
2022/10/18 07:42:19;;;;;;;12.57;5.85;;;409.70;2355.20;;;;;;5029157;28;20419;-80
2022/10/18 07:44:44;;;;;;;8.93;5.72;;;409.70;2252.80;;;;;;5032745;28;20482;-77
2022/10/18 07:47:10;;;;;;;8.55;4.68;;;409.80;2252.80;;;;;;5055525;28;20080;-78
2022/10/18 07:49:36;;;;;;;9.48;4.88;;;409.90;2278.40;;;;;;5042730;28;20067;-80
2022/10/18 07:52:02;;;;;;;14.30;4.97;;;410.00;2304.00;;;;;;5036893;28;20467;-76
2022/10/18 07:54:28;;;;;;;12.88;5.00;;;410.00;2099.20;;;;;;5037713;28;20021;-79
2022/10/18 07:56:53;;;;;;;15.40;4.65;;;410.00;2150.40;;;;;;5020724;28;20037;-77
2022/10/18 07:59:19;;;;;;;11.80;5.80;;;410.10;2048.00;;;;;;5018190;28;20040;-78
2022/10/18 08:01:45;;;;;;;10.38;4.80;;;410.10;2048.00;;;;;;5032393;28;20042;-80
2022/10/18 08:04:10;;;;;;;13.88;4.95;;;410.20;2022.40;;;;;;5038169;28;20058;-77
2022/10/18 08:06:36;;;;;;;14.40;5.13;;;410.30;1996.80;;;;;;5033737;28;20017;-77
2022/10/18 08:09:02;;;;;;;12.88;4.57;;;410.40;1996.80;;;;;;4997456;28;20041;-75
2022/10/18 08:11:28;;;;;;;11.75;5.68;;;410.40;2022.40;;;;;;5002916;28;20056;-82
2022/10/18 08:13:54;;;;;;;9.40;5.05;;;410.50;2048.00;;;;;;5005036;28;20092;-82
2022/10/18 08:16:24;;;;;;;11.55;4.85;;;435.30;1971.20;;;;;;5023284;28;20040;-79
2022/10/18 08:18:50;;;;;;;13.20;5.20;;;435.30;1920.00;;;;;;5037174;28;20108;-79
2022/10/18 08:21:17;;;;;;;15.63;5.32;;;435.50;1945.60;;;;;;5037720;28;20112;-83
2022/10/18 08:23:43;;;;;;;15.18;4.72;;;435.30;1843.20;;;;;;5054894;28;20025;-81
2022/10/18 08:26:15;;;;;;;9.00;4.70;;;435.40;1868.80;;;;;;5027995;28;20053;-78
2022/10/18 08:28:41;;;;;;;11.85;5.38;;;435.50;1868.80;;;;;;5037346;28;20033;-79
2022/10/18 08:31:12;;;;;;;13.77;4.57;;;435.60;1945.60;;;;;;5023200;28;20051;-80
2022/10/18 08:33:39;;;;;;;11.25;6.22;;;435.60;1868.80;;;;;;5005148;28;20033;-84
2022/10/18 08:36:07;;;;;;;9.32;5.00;;;435.70;1817.60;;;;;;5008733;28;20072;-77
2022/10/18 08:38:35;;;;;;;9.98;5.15;;;435.70;1817.60;;;;;;5052600;28;20496;-78
2022/10/18 08:41:28;;;;;;;11.57;4.85;;;435.80;1792.00;;;;;;5036793;28;20033;-77
2022/10/18 08:44:09;;;;;;;19.88;5.82;;;435.90;1817.60;;;;;;5029343;28;20032;-78
2022/10/18 08:46:46;;;;;;;17.98;5.43;;;435.90;1792.00;;;;;;5053972;28;20049;-75
2022/10/18 08:49:28;;;;;;;16.90;6.40;;;436.10;1766.40;;;;;;5048495;28;20037;-81
2022/10/18 08:51:55;;;;;;;9.18;4.70;;;436.10;1740.80;;;;;;4996607;28;20561;-76
2022/10/18 08:54:36;;;;;;;10.95;4.57;;;460.80;1766.40;;;;;;5002554;28;20041;-75
2022/10/18 08:57:09;;;;;;;12.57;4.30;;;460.80;1766.40;;;;;;5016556;28;20026;-74
2022/10/18 08:59:39;;;;;;;10.30;4.78;;;460.90;1766.40;;;;;;5013787;28;20026;-74
2022/10/18 09:02:14;;;;;;;13.65;4.72;;;461.00;1715.20;;;;;;5019925;28;20104;-75
2022/10/18 09:05:00;;;;;;;16.98;6.45;;;461.10;1715.20;;;;;;5019355;28;20084;-80
2022/10/18 09:07:59;;;;;;;14.43;4.70;;;461.20;1664.00;;;;;;5024693;28;20053;-76
2022/10/18 09:10:54;;;;;;;9.05;4.50;;;461.30;1664.00;;;;;;5038519;28;20047;-81
2022/10/18 09:13:57;;;;;;;11.32;5.00;;;461.50;1664.00;;;;;;5012938;28;20055;-73
2022/10/18 09:16:44;;;;;;;12.30;4.53;;;461.60;1638.40;;;;;;5053949;28;20502;-84
2022/10/18 09:19:42;;;;;;;10.93;4.97;;;486.40;1587.20;;;;;;5053658;28;20037;-73
2022/10/18 09:22:17;;;;;;;9.48;3.90;;;486.40;1587.20;;;;;;5053687;28;20096;-73
2022/10/18 09:24:45;;;;;;;13.98;4.25;;;486.50;1561.60;;;;;;5053803;28;20100;-77
2022/10/18 09:27:15;;;;;;;11.45;4.55;;;486.60;1536.00;;;;;;5042021;28;20029;-85
2022/10/18 09:29:54;;;;;;;11.45;4.72;;;486.70;1561.60;;;;;;5015995;28;20022;-76
2022/10/18 09:32:45;;;;;;;8.70;4.22;;;486.80;1536.00;;;;;;4998433;28;20056;-82
2022/10/18 09:35:12;;;;;;;17.45;4.95;;;486.80;1510.40;;;;;;5029183;28;20060;-78
2022/10/18 09:37:39;;;;;;;10.20;4.53;;;487.10;1561.60;;;;;;4998348;28;20402;-74
2022/10/18 09:40:23;;;;;;;11.50;4.32;;;487.20;1536.00;;;;;;5013404;28;20033;-81
2022/10/18 09:43:00;;;;;;;15.05;5.43;;;487.20;1536.00;;;;;;5018196;28;20029;-74
2022/10/18 09:45:39;;;;;;;14.88;4.70;;;487.30;1510.40;;;;;;5017804;28;20096;-85
2022/10/18 09:48:28;;;;;;;12.90;4.88;;;487.30;1510.40;;;;;;5019095;28;20129;-83
2022/10/18 09:51:00;;;;;;;9.90;4.38;;;512.20;1510.40;;;;;;5029469;28;20021;-79
2022/10/18 09:53:44;;;;;;;16.98;5.10;;;512.30;1484.80;;;;;;5033706;28;20040;-72
2022/10/18 09:56:39;;;;;;;15.77;5.43;;;512.20;1433.60;;;;;;5035162;28;20024;-74
2022/10/18 09:59:09;;;;;;;9.55;4.75;;;;;;;;;;4953257;29;20039;-78
2022/10/18 10:01:35;;;;;;;14.52;5.20;;;512.70;1459.20;;;;;;4953242;29;20049;-83
2022/10/18 10:04:00;;;;;;;8.90;4.80;;;512.90;1433.60;;;;;;4925041;29;20032;-75
2022/10/18 10:06:33;;;;;;;10.38;5.07;;;537.70;1459.20;;;;;;4949749;29;20604;-83
2022/10/18 10:09:14;;;;;;;8.77;4.32;;;537.80;1408.00;;;;;;4952038;28;20592;-74
2022/10/18 10:11:49;;;;;;;8.55;4.38;;;537.80;1408.00;;;;;;4924778;29;20039;-80
2022/10/18 10:14:26;;;;;;;12.20;5.07;;;538.00;1433.60;;;;;;4949516;29;20027;-82
2022/10/18 10:16:53;;;;;;;12.93;4.85;;;;;;;;;;4927916;29;20457;-75
2022/10/18 10:19:57;;;;;;;15.52;4.90;;;538.20;1382.40;;;;;;4933631;29;20028;-86
2022/10/18 10:22:31;;;;;;;9.60;4.32;;;538.40;1382.40;;;;;;4914784;29;20079;-73
2022/10/18 10:24:57;;;;;;;12.25;4.05;;;538.50;1356.80;;;;;;4914650;29;20489;-83
2022/10/18 10:27:22;;;;;;;16.70;3.70;;;563.30;1356.80;;;;;;4914729;29;20119;-86
2022/10/18 10:29:52;;;;;;;29.25;6.50;;;;;;;;;;4913371;29;20056;-77
2022/10/18 10:32:20;;;;;;;8.90;4.05;;;563.70;1331.20;;;;;;4901350;29;20115;-87
2022/10/18 10:34:46;;;;;;;11.15;3.38;;;563.80;1305.60;;;;;;4895488;28;20519;-81
2022/10/18 10:37:27;;;;;;;14.15;3.63;;;563.90;1254.40;;;;;;5004036;28;20057;-82
2022/10/18 10:40:06;;;;;;;9.90;4.20;;;563.90;1254.40;;;;;;4994979;28;20451;-87
2022/10/18 10:42:32;;;;;;;7.30;3.85;;;564.10;1280.00;;;;;;4990384;28;20042;-76
2022/10/18 10:45:01;;;;;;;9.20;3.50;;;564.10;1280.00;;;;;;5008020;28;20052;-76
2022/10/18 10:47:35;;;;;;;9.05;4.40;;;588.80;1254.40;;;;;;5030243;28;20542;-81
2022/10/18 10:50:11;;;;;;;10.93;4.20;;;589.00;1254.40;;;;;;5013707;28;20076;-79
2022/10/18 10:52:39;;;;;;;11.43;4.13;;;589.20;1254.40;;;;;;5030711;28;20129;-82
2022/10/18 10:55:15;;;;;;;11.85;4.63;;;589.10;1228.80;;;;;;4998304;28;20057;-82
2022/10/18 10:57:42;;;;;;;;;;;589.20;1228.80;;;;;;5017564;28;20022;-75
2022/10/18 11:00:36;;;;;;;9.18;4.30;;;589.50;1203.20;;;;;;5015365;28;19912;-75
2022/10/18 11:03:22;;;;;;;10.65;4.30;;;589.50;1152.00;;;;;;5018150;28;20029;-75
2022/10/18 11:05:59;;;;;;;9.65;4.05;;;589.50;1152.00;;;;;;5009093;28;20066;-76
2022/10/18 11:08:31;;;;;;;12.38;3.55;;;589.70;1177.60;;;;;;5026443;28;20100;-76
2022/10/18 11:11:20;;;;;;;14.98;4.30;;;589.60;1152.00;;;;;;5010316;28;20021;-75
2022/10/18 11:13:50;;;;;;;16.17;4.32;;;589.70;1152.00;;;;;;5011860;28;20028;-76
2022/10/18 11:16:30;;;;;;;14.50;3.85;;;614.50;1152.00;;;;;;5011807;28;20037;-75
2022/10/18 11:18:57;;;;;;;9.40;3.88;;;614.40;1126.40;;;;;;5016943;28;20032;-76
2022/10/18 11:21:28;;;;;;;19.27;4.95;;;614.60;1152.00;;;;;;5011643;28;20020;-75
2022/10/18 11:23:54;;;;;;;8.13;3.75;;;614.50;1126.40;;;;;;5012869;28;20137;-75
2022/10/18 11:26:38;;;;;;;15.38;3.90;;;614.50;1100.80;;;;;;5013317;28;20022;-77
2022/10/18 11:29:13;;;;;;;7.07;2.60;;;614.40;1075.20;;;;;;5011678;28;20117;-76
2022/10/18 11:31:45;;;;;;;5.18;3.60;;;614.40;998.40;;;;;;5020658;28;20044;-86
2022/10/18 11:34:40;;;;;;;5.53;3.30;;;614.80;998.40;;;;;;5051998;28;20544;-76
2022/10/18 11:37:24;;;;;;;10.98;3.15;;;614.50;998.40;;;;;;5044792;28;20029;-83
2022/10/18 11:40:02;;;;;;;6.30;3.75;;;614.70;1024.00;;;;;;5030685;28;20067;-82
2022/10/18 11:42:31;;;;;;;8.90;3.42;;;614.80;998.40;;;;;;5030588;28;20056;-77
2022/10/18 11:45:21;;;;;;;9.77;3.40;;;614.80;1024.00;;;;;;5047732;28;20508;-76
2022/10/18 11:48:11;;;;;;;6.75;3.30;;;614.80;1024.00;;;;;;5051734;28;20033;-81
2022/10/18 11:50:47;;;;;;;10.80;3.58;;;614.90;1024.00;;;;;;5033683;28;20127;-78
2022/10/18 11:53:18;;;;;;;11.32;4.20;;;615.00;1024.00;;;;;;5033279;28;20506;-76
2022/10/18 11:55:47;;;;;;;11.50;3.65;;;615.10;998.40;;;;;;5017347;28;20025;-82
2022/10/18 11:58:22;;;;;;;10.13;4.05;;;615.20;998.40;;;;;;5009709;28;20029;-76
2022/10/18 12:00:52;;;;;;;7.70;3.72;;;;;;;;;;5013927;28;20037;-79
2022/10/18 12:03:39;;;;;;;7.38;3.50;;;615.30;972.80;;;;;;5012946;28;20026;-77
2022/10/18 12:06:17;;;;;;;7.05;4.10;;;615.30;972.80;;;;;;5019377;28;20026;-80
2022/10/18 12:08:56;;;;;;;8.80;4.32;;;615.30;947.20;;;;;;5024431;28;20041;-78
2022/10/18 12:11:32;;;;;;;13.65;5.10;;;615.30;947.20;;;;;;5020032;28;20104;-82
2022/10/18 12:14:01;;;;;;;10.00;3.90;;;615.20;947.20;;;;;;5016507;28;20077;-76
2022/10/18 12:16:34;;;;;;;6.95;3.97;;;615.10;921.60;;;;;;5017163;28;20033;-76
2022/10/18 12:19:03;;;;;;;7.13;3.50;;;615.10;947.20;;;;;;5035295;28;20036;-80
2022/10/18 12:21:32;;;;;;;11.10;4.10;;;614.80;947.20;;;;;;5015830;28;20419;-75
2022/10/18 12:24:17;;;;;;;12.45;3.88;;;615.00;921.60;;;;;;5027493;28;20040;-75
2022/10/18 12:26:47;;;;;;;8.35;3.70;;;615.10;921.60;;;;;;5015135;28;20038;-76
2022/10/18 12:29:28;;;;;;;8.43;3.50;;;615.10;947.20;;;;;;4998645;28;20065;-78
2022/10/18 12:31:59;;;;;;;7.60;2.88;;;615.00;921.60;;;;;;5017180;28;20018;-79
2022/10/18 12:34:32;;;;;;;8.63;3.30;;;614.90;921.60;;;;;;5019380;28;20025;-76